Time;durP1;ratioP1;P1;durP2;ratioP2;P2;SDS_P1;SDS_P2;PMS_P1;PMS_P2;Temp;Humidity;BMP_temperature;BMP_pressure;BME280_temperature;BME280_humidity;BME280_pressure;Samples;Min_cycle;Max_cycle;Signal;HPM_P1;HPM_P2
2022/01/09 00:00:33;;;;;;;4.60;2.60;;;20.50;45.40;;;;;;4996896;28;89394;-70
2022/01/09 00:03:03;;;;;;;3.30;2.20;;;20.50;45.40;;;;;;4992032;28;88473;-71
2022/01/09 00:05:31;;;;;;;5.17;2.90;;;20.50;45.40;;;;;;4994767;28;90715;-69
2022/01/09 00:07:59;;;;;;;5.40;2.53;;;20.50;45.40;;;;;;4991649;28;90797;-70
2022/01/09 00:10:29;;;;;;;2.67;2.40;;;20.50;45.40;;;;;;4992979;28;88976;-70
2022/01/09 00:12:57;;;;;;;5.20;2.53;;;20.50;45.40;;;;;;4994997;28;88695;-69
2022/01/09 00:15:25;;;;;;;4.40;2.70;;;20.50;45.40;;;;;;4993317;28;89678;-69
2022/01/09 00:17:53;;;;;;;3.63;2.43;;;20.40;45.30;;;;;;4988695;28;93337;-69
2022/01/09 00:20:23;;;;;;;4.53;2.70;;;20.40;45.30;;;;;;4999613;28;89559;-69
2022/01/09 00:22:52;;;;;;;6.30;2.30;;;20.40;45.40;;;;;;4993553;28;89998;-69
2022/01/09 00:25:20;;;;;;;7.93;3.07;;;20.40;45.30;;;;;;4992640;28;89782;-69
2022/01/09 00:27:48;;;;;;;5.07;2.63;;;20.40;45.30;;;;;;4995479;28;89076;-70
2022/01/09 00:30:18;;;;;;;3.97;1.93;;;20.40;45.30;;;;;;4985238;28;88555;-70
2022/01/09 00:32:46;;;;;;;3.80;2.13;;;20.40;45.40;;;;;;4992939;28;88882;-70
2022/01/09 00:35:14;;;;;;;6.17;2.70;;;20.40;45.40;;;;;;4992473;28;89540;-70
2022/01/09 00:37:46;;;;;;;5.07;2.80;;;20.40;45.40;;;;;;4993562;28;88890;-70
2022/01/09 00:40:15;;;;;;;5.73;2.80;;;20.40;45.40;;;;;;4996260;28;89142;-70
2022/01/09 00:42:43;;;;;;;4.27;2.57;;;20.30;45.30;;;;;;4997603;28;88593;-70
2022/01/09 00:45:12;;;;;;;5.90;2.40;;;20.30;45.40;;;;;;4988031;28;90672;-70
2022/01/09 00:47:40;;;;;;;9.13;2.50;;;20.30;45.40;;;;;;4992862;28;89132;-71
2022/01/09 00:50:08;;;;;;;7.90;2.97;;;20.30;45.30;;;;;;4998170;28;88432;-70
2022/01/09 00:52:39;;;;;;;4.20;2.47;;;20.30;45.30;;;;;;4993881;28;89907;-70
2022/01/09 00:55:09;;;;;;;6.77;2.40;;;20.30;45.30;;;;;;4997617;28;89640;-70
2022/01/09 00:57:37;;;;;;;5.13;2.57;;;20.30;45.30;;;;;;4989959;28;89124;-70
2022/01/09 01:00:07;;;;;;;5.60;2.40;;;20.30;45.30;;;;;;4992123;28;88519;-70
2022/01/09 01:02:35;;;;;;;5.47;2.50;;;20.30;45.40;;;;;;4994525;28;88524;-70
2022/01/09 01:05:03;;;;;;;6.17;2.40;;;20.30;45.40;;;;;;4993367;28;91145;-70
2022/01/09 01:07:31;;;;;;;3.53;2.30;;;20.30;45.40;;;;;;4993698;28;88901;-70
2022/01/09 01:09:59;;;;;;;5.47;3.10;;;20.30;45.40;;;;;;4990812;28;88475;-70
2022/01/09 01:12:30;;;;;;;4.33;2.57;;;20.30;45.40;;;;;;4992490;28;88706;-70
2022/01/09 01:14:58;;;;;;;8.17;3.47;;;20.20;45.30;;;;;;4996010;28;91505;-70
2022/01/09 01:17:26;;;;;;;5.57;2.47;;;20.20;45.30;;;;;;4996675;28;90074;-70
2022/01/09 01:19:54;;;;;;;6.20;3.00;;;20.20;45.30;;;;;;4994190;28;88508;-70
2022/01/09 01:22:29;;;;;;;9.57;3.60;;;20.20;45.90;;;;;;4994694;28;88387;-70
2022/01/09 01:24:57;;;;;;;6.67;3.67;;;20.20;45.30;;;;;;4988093;28;90709;-69
2022/01/09 01:27:26;;;;;;;10.83;4.97;;;20.20;45.30;;;;;;4992590;28;88792;-70
2022/01/09 01:29:55;;;;;;;9.77;4.70;;;20.20;45.30;;;;;;4988736;28;88459;-70
2022/01/09 01:32:23;;;;;;;9.27;4.97;;;20.20;45.30;;;;;;4998211;28;88698;-70
2022/01/09 01:34:51;;;;;;;12.30;5.00;;;20.20;45.30;;;;;;4983209;28;89625;-70
2022/01/09 01:37:19;;;;;;;6.47;4.17;;;20.20;45.30;;;;;;4987703;28;89091;-70
2022/01/09 01:39:47;;;;;;;6.90;4.37;;;20.10;45.30;;;;;;4991685;28;88512;-70
2022/01/09 01:42:15;;;;;;;10.03;5.60;;;20.10;45.30;;;;;;4994255;28;88653;-70
2022/01/09 01:44:44;;;;;;;8.27;5.07;;;20.10;45.30;;;;;;4995479;28;90989;-69
2022/01/09 01:47:15;;;;;;;6.83;4.70;;;20.10;45.30;;;;;;4993545;28;89210;-71
2022/01/09 01:49:44;;;;;;;8.87;5.30;;;20.10;45.30;;;;;;4994304;28;88307;-70
2022/01/09 01:52:12;;;;;;;11.97;5.40;;;20.10;45.30;;;;;;4995581;28;88627;-70
2022/01/09 01:54:42;;;;;;;8.97;5.07;;;20.10;45.30;;;;;;4986226;28;89549;-69
2022/01/09 01:57:11;;;;;;;8.30;3.90;;;20.10;45.30;;;;;;4992632;28;90186;-70
2022/01/09 01:59:39;;;;;;;10.87;5.03;;;20.10;45.30;;;;;;4995338;28;88451;-71
2022/01/09 02:02:07;;;;;;;12.07;5.63;;;20.10;45.30;;;;;;4991486;28;88511;-70
2022/01/09 02:04:36;;;;;;;9.23;4.70;;;20.10;45.30;;;;;;4983954;28;89811;-69
2022/01/09 02:07:05;;;;;;;11.20;5.30;;;20.10;45.30;;;;;;4993316;28;88952;-70
2022/01/09 02:09:33;;;;;;;11.73;5.03;;;20.10;45.30;;;;;;4989085;28;88617;-69
2022/01/09 02:12:01;;;;;;;10.03;5.40;;;20.10;45.30;;;;;;4998792;28;88428;-70
2022/01/09 02:14:29;;;;;;;6.77;4.23;;;20.10;45.30;;;;;;4997865;28;89848;-69
2022/01/09 02:16:57;;;;;;;12.20;5.20;;;20.10;45.30;;;;;;4998948;28;89093;-69
2022/01/09 02:19:26;;;;;;;8.27;4.47;;;20.10;45.30;;;;;;4996280;28;88345;-69
2022/01/09 02:21:56;;;;;;;8.10;4.40;;;20.00;45.20;;;;;;4996481;28;88604;-70
2022/01/09 02:24:25;;;;;;;9.23;5.13;;;20.00;45.20;;;;;;4990547;28;90015;-70
2022/01/09 02:26:53;;;;;;;9.20;4.80;;;20.00;45.20;;;;;;4993463;28;89021;-69
2022/01/09 02:29:21;;;;;;;10.53;4.67;;;20.00;45.20;;;;;;4993976;28;88901;-69
2022/01/09 02:31:49;;;;;;;11.77;5.50;;;20.00;45.20;;;;;;4996414;28;88674;-70
2022/01/09 02:34:17;;;;;;;7.60;4.50;;;20.00;45.20;;;;;;4993172;28;90654;-69
2022/01/09 02:36:45;;;;;;;10.47;4.90;;;20.00;45.20;;;;;;5000975;28;89314;-69
2022/01/09 02:39:14;;;;;;;8.00;4.57;;;20.00;45.20;;;;;;4991812;28;88465;-69
2022/01/09 02:41:42;;;;;;;9.57;4.63;;;20.00;45.20;;;;;;4989631;28;88710;-70
2022/01/09 02:44:10;;;;;;;9.57;4.17;;;20.00;45.20;;;;;;4995135;28;90720;-69
2022/01/09 02:46:52;;;;;;;7.43;4.43;;;20.00;45.20;;;;;;4993932;28;88772;-70
2022/01/09 02:49:21;;;;;;;7.30;4.27;;;19.90;45.20;;;;;;4996544;28;88553;-69
2022/01/09 02:51:49;;;;;;;7.87;4.17;;;19.90;45.80;;;;;;4991462;28;88569;-69
2022/01/09 02:57:04;;;;;;;7.53;3.93;;;19.90;45.20;;;;;;4997970;28;89460;-69
2022/01/09 02:59:32;;;;;;;5.93;3.93;;;19.90;45.20;;;;;;4996240;28;88576;-70
2022/01/09 03:02:00;;;;;;;8.93;4.00;;;19.90;45.20;;;;;;4994747;28;88579;-69
2022/01/09 03:04:28;;;;;;;11.67;3.70;;;19.90;45.20;;;;;;4998467;28;89636;-70
2022/01/09 03:06:56;;;;;;;6.10;3.43;;;19.90;45.20;;;;;;4996938;28;90109;-70
2022/01/09 03:09:25;;;;;;;7.83;3.50;;;19.90;45.20;;;;;;4996712;28;88642;-70
2022/01/09 03:11:53;;;;;;;5.47;3.63;;;19.80;45.10;;;;;;4994670;28;88494;-71
2022/01/09 03:14:21;;;;;;;8.20;3.53;;;19.90;45.20;;;;;;4990515;28;93216;-70
2022/01/09 03:16:49;;;;;;;5.60;3.17;;;19.80;45.10;;;;;;4996615;28;93261;-69
2022/01/09 03:19:17;;;;;;;6.67;3.23;;;19.90;45.20;;;;;;4997782;28;88409;-69
2022/01/09 03:21:45;;;;;;;4.83;3.00;;;19.80;45.10;;;;;;4993656;28;88633;-69
2022/01/09 03:24:13;;;;;;;6.10;3.00;;;19.80;45.10;;;;;;4994172;28;89579;-69
2022/01/09 03:26:43;;;;;;;5.80;3.37;;;19.80;45.10;;;;;;4996099;28;89964;-69
2022/01/09 03:29:13;;;;;;;7.53;2.87;;;19.80;45.10;;;;;;4994658;28;88589;-69
2022/01/09 03:31:41;;;;;;;5.80;3.23;;;19.80;45.10;;;;;;4992208;28;88700;-69
2022/01/09 03:34:09;;;;;;;3.13;2.07;;;19.80;45.10;;;;;;4990640;28;91108;-69
2022/01/09 03:36:37;;;;;;;4.53;3.27;;;19.80;45.10;;;;;;4998383;28;89014;-69
2022/01/09 03:39:05;;;;;;;5.60;2.70;;;19.80;45.10;;;;;;5002215;28;88535;-69
2022/01/09 03:41:33;;;;;;;4.60;2.33;;;19.80;45.10;;;;;;5001920;28;88504;-69
2022/01/09 03:44:02;;;;;;;5.57;2.40;;;19.80;45.10;;;;;;5001667;28;89879;-69
2022/01/09 03:46:30;;;;;;;7.77;3.50;;;19.70;45.10;;;;;;5001237;28;89917;-70
2022/01/09 03:48:58;;;;;;;4.93;2.53;;;19.70;45.10;;;;;;5002138;28;88528;-70
2022/01/09 03:51:32;;;;;;;3.67;2.20;;;19.70;45.00;;;;;;5001035;28;88647;-69
2022/01/09 03:54:00;;;;;;;4.67;2.10;;;19.70;45.00;;;;;;5000409;28;89484;-70
2022/01/09 03:56:28;;;;;;;4.93;2.80;;;19.70;45.00;;;;;;5000330;28;89978;-70
2022/01/09 03:58:56;;;;;;;4.50;2.37;;;19.70;45.00;;;;;;5001139;28;89537;-70
2022/01/09 04:01:26;;;;;;;4.97;2.83;;;19.70;45.10;;;;;;5000354;28;88713;-69
2022/01/09 04:03:54;;;;;;;6.97;2.40;;;19.70;45.10;;;;;;5001402;28;89635;-70
2022/01/09 04:06:23;;;;;;;3.70;2.23;;;19.70;45.10;;;;;;4998692;28;88963;-69
2022/01/09 04:08:52;;;;;;;3.90;1.67;;;19.70;45.10;;;;;;4981551;28;88363;-69
2022/01/09 04:11:22;;;;;;;3.80;2.10;;;19.70;45.10;;;;;;4997793;28;88384;-69
2022/01/09 04:13:50;;;;;;;4.10;1.90;;;19.70;45.10;;;;;;4987399;28;90703;-69
2022/01/09 04:16:19;;;;;;;3.70;2.10;;;19.60;45.00;;;;;;4998617;28;88949;-69
2022/01/09 04:18:48;;;;;;;4.60;2.00;;;19.60;45.00;;;;;;4996127;28;89406;-69
2022/01/09 04:21:16;;;;;;;5.13;1.50;;;19.60;45.00;;;;;;5001695;28;88294;-70
2022/01/09 04:23:45;;;;;;;3.80;2.03;;;19.60;45.00;;;;;;5000909;28;89555;-69
2022/01/09 04:26:13;;;;;;;2.37;1.60;;;19.60;45.00;;;;;;5000347;28;88488;-69
2022/01/09 04:28:41;;;;;;;4.70;2.33;;;19.60;45.00;;;;;;5000123;28;88583;-69
2022/01/09 04:31:09;;;;;;;4.57;1.77;;;19.60;45.00;;;;;;5000401;28;88722;-69
2022/01/09 04:33:37;;;;;;;1.70;1.30;;;19.70;45.00;;;;;;5000600;28;89517;-69
2022/01/09 04:36:06;;;;;;;4.17;1.60;;;19.60;45.00;;;;;;5000471;28;89972;-69
2022/01/09 04:38:34;;;;;;;2.10;1.77;;;19.60;44.90;;;;;;4999500;28;88497;-69
2022/01/09 04:41:02;;;;;;;2.87;1.40;;;19.60;45.00;;;;;;5001614;28;88683;-68
2022/01/09 04:43:30;;;;;;;3.00;1.60;;;19.60;44.90;;;;;;5000629;28;89361;-69
2022/01/09 04:45:58;;;;;;;4.40;1.50;;;19.60;44.90;;;;;;4987434;28;89088;-69
2022/01/09 04:48:26;;;;;;;3.33;1.47;;;19.60;45.60;;;;;;4998049;28;88492;-69
2022/01/09 04:50:55;;;;;;;5.20;1.87;;;19.60;45.00;;;;;;5000009;28;88636;-69
2022/01/09 04:53:25;;;;;;;6.13;1.83;;;19.60;45.00;;;;;;5000060;28;89567;-69
2022/01/09 04:55:53;;;;;;;3.83;1.43;;;19.50;44.90;;;;;;4999794;28;89069;-69
2022/01/09 04:58:20;;;;;;;1.43;1.20;;;19.50;45.20;;;;;;4997799;28;88914;-69
2022/01/09 05:00:49;;;;;;;2.10;0.90;;;19.50;44.90;;;;;;4992768;28;88642;-69
2022/01/09 05:03:19;;;;;;;3.83;1.50;;;19.50;44.90;;;;;;5000740;28;89538;-69
2022/01/09 05:05:47;;;;;;;2.53;1.67;;;19.50;44.90;;;;;;5000036;28;89184;-69
2022/01/09 05:08:16;;;;;;;1.97;1.60;;;19.50;44.90;;;;;;5000808;28;88433;-71
2022/01/09 05:10:45;;;;;;;3.47;1.73;;;19.50;44.90;;;;;;4992677;28;88367;-69
2022/01/09 05:13:13;;;;;;;2.23;1.70;;;19.50;44.90;;;;;;4982041;28;90995;-69
2022/01/09 05:15:41;;;;;;;6.10;1.40;;;19.50;44.90;;;;;;4991387;28;90059;-69
2022/01/09 05:18:13;;;;;;;1.90;1.30;;;19.50;44.90;;;;;;4998549;28;88493;-69
2022/01/09 05:20:41;;;;;;;2.23;1.13;;;19.50;44.90;;;;;;4988744;28;88380;-69
2022/01/09 05:23:09;;;;;;;2.07;1.33;;;19.40;44.80;;;;;;5000196;28;90043;-69
2022/01/09 05:25:37;;;;;;;2.73;1.20;;;19.40;44.80;;;;;;4982944;28;89131;-70
2022/01/09 05:28:07;;;;;;;1.30;0.83;;;19.40;44.80;;;;;;4999274;28;88561;-69
2022/01/09 05:30:35;;;;;;;1.40;1.17;;;19.40;44.80;;;;;;4999846;28;88663;-69
2022/01/09 05:33:03;;;;;;;1.77;1.30;;;19.40;44.80;;;;;;5000488;28;89332;-69
2022/01/09 05:35:31;;;;;;;5.13;2.00;;;19.40;44.80;;;;;;4997947;28;88838;-69
2022/01/09 05:37:59;;;;;;;2.40;1.00;;;19.10;44.60;;;;;;4987613;28;88453;-69
2022/01/09 05:40:27;;;;;;;2.40;1.30;;;19.40;44.80;;;;;;4980510;28;88681;-68
2022/01/09 05:42:55;;;;;;;4.60;1.70;;;19.40;44.80;;;;;;4986495;28;90987;-70
2022/01/09 05:45:24;;;;;;;2.30;0.93;;;19.40;44.80;;;;;;5003217;28;89105;-69
2022/01/09 05:47:52;;;;;;;2.13;1.00;;;19.40;44.80;;;;;;5003279;28;88508;-69
2022/01/09 05:50:20;;;;;;;1.50;0.97;;;19.40;44.80;;;;;;5002453;28;88642;-69
2022/01/09 05:52:48;;;;;;;1.50;1.13;;;19.40;44.80;;;;;;5002996;28;88527;-69
2022/01/09 05:55:16;;;;;;;1.10;0.90;;;19.40;44.70;;;;;;5001208;28;89021;-69
2022/01/09 05:57:44;;;;;;;2.00;0.90;;;19.40;44.70;;;;;;4997486;28;88510;-69
2022/01/09 06:00:14;;;;;;;3.27;1.47;;;19.40;44.80;;;;;;4995966;28;88562;-69
2022/01/09 06:02:44;;;;;;;2.40;1.10;;;19.40;44.80;;;;;;5000975;28;90133;-69
2022/01/09 06:05:12;;;;;;;4.57;1.20;;;19.40;44.80;;;;;;5002997;28;88731;-69
2022/01/09 06:07:40;;;;;;;2.87;1.07;;;19.40;44.80;;;;;;5003267;28;88481;-69
2022/01/09 06:10:08;;;;;;;3.10;1.30;;;19.40;44.80;;;;;;5002477;28;88801;-69
2022/01/09 06:12:36;;;;;;;2.03;1.00;;;19.30;44.80;;;;;;4998326;28;89511;-69
2022/01/09 06:15:05;;;;;;;2.57;1.00;;;19.30;44.80;;;;;;4988625;28;88527;-69
2022/01/09 06:17:36;;;;;;;1.63;0.80;;;19.30;44.80;;;;;;5002890;28;88299;-68
2022/01/09 06:20:06;;;;;;;3.63;0.80;;;19.30;44.80;;;;;;4998659;28;88532;-69
2022/01/09 06:22:34;;;;;;;1.03;0.83;;;19.30;44.80;;;;;;5003398;28;90724;-69
2022/01/09 06:25:02;;;;;;;2.13;1.20;;;19.30;45.50;;;;;;5001945;28;88991;-69
2022/01/09 06:27:30;;;;;;;2.00;0.80;;;19.30;44.80;;;;;;5002771;28;88512;-69
2022/01/09 06:29:58;;;;;;;1.83;1.37;;;19.30;44.80;;;;;;5002347;28;89169;-69
2022/01/09 06:32:26;;;;;;;3.73;1.20;;;19.30;44.80;;;;;;4987741;28;90604;-69
2022/01/09 06:34:54;;;;;;;1.93;0.80;;;19.30;44.80;;;;;;4990006;28;88465;-69
2022/01/09 06:37:23;;;;;;;2.63;1.40;;;19.30;44.80;;;;;;5001491;28;88575;-69
2022/01/09 06:39:51;;;;;;;0.60;0.60;;;19.20;44.70;;;;;;5002402;28;88688;-69
2022/01/09 06:42:19;;;;;;;3.23;1.07;;;19.20;44.70;;;;;;5002608;28;89495;-69
2022/01/09 06:44:47;;;;;;;2.27;0.70;;;19.20;44.70;;;;;;5002280;28;88936;-70
2022/01/09 06:47:15;;;;;;;3.80;1.27;;;19.20;44.70;;;;;;5001680;28;88561;-69
2022/01/09 06:49:43;;;;;;;2.43;1.00;;;19.20;44.70;;;;;;5000902;28;88495;-69
2022/01/09 06:52:11;;;;;;;4.33;1.40;;;19.20;44.70;;;;;;5000089;28;91003;-69
2022/01/09 06:54:40;;;;;;;2.57;1.40;;;19.20;44.70;;;;;;5002073;28;88714;-69
2022/01/09 06:57:09;;;;;;;2.83;1.10;;;19.20;44.70;;;;;;5002711;28;88421;-68
2022/01/09 06:59:37;;;;;;;2.50;0.70;;;19.20;44.70;;;;;;5000136;28;88454;-69
2022/01/09 07:02:05;;;;;;;1.60;0.70;;;19.20;44.70;;;;;;4997686;28;89485;-69
2022/01/09 07:04:33;;;;;;;2.93;1.10;;;19.20;44.70;;;;;;4999590;28;88918;-69
2022/01/09 07:07:01;;;;;;;3.37;1.10;;;19.20;44.70;;;;;;4995326;28;88403;-69
2022/01/09 07:09:29;;;;;;;1.70;1.00;;;19.20;44.70;;;;;;5000682;28;89899;-69
2022/01/09 07:11:58;;;;;;;2.40;0.90;;;19.20;44.70;;;;;;5001243;28;90066;-69
2022/01/09 07:14:26;;;;;;;1.67;0.70;;;19.20;44.70;;;;;;5001589;28;89033;-70
2022/01/09 07:16:54;;;;;;;2.40;0.97;;;19.20;44.70;;;;;;5002376;28;88537;-69
2022/01/09 07:19:22;;;;;;;1.00;0.70;;;19.20;44.70;;;;;;4998386;28;88505;-69
2022/01/09 07:21:50;;;;;;;1.27;0.90;;;19.20;44.70;;;;;;5000827;28;89568;-69
2022/01/09 07:24:18;;;;;;;1.33;0.63;;;19.10;44.60;;;;;;5000744;28;89078;-70
2022/01/09 07:26:46;;;;;;;1.20;0.63;;;19.10;44.70;;;;;;4995195;28;88571;-68
2022/01/09 07:29:16;;;;;;;2.33;0.80;;;19.10;44.70;;;;;;4991143;28;88563;-69
2022/01/09 07:31:44;;;;;;;2.33;1.10;;;19.10;44.70;;;;;;5001879;28;90620;-69
2022/01/09 07:34:12;;;;;;;0.90;0.57;;;19.10;44.70;;;;;;5001201;28;89031;-69
2022/01/09 07:36:40;;;;;;;1.20;0.90;;;19.10;44.70;;;;;;5001340;28;88505;-69
2022/01/09 07:39:08;;;;;;;0.93;0.77;;;19.10;44.70;;;;;;4999944;28;88646;-69
2022/01/09 07:41:36;;;;;;;2.83;1.03;;;19.10;44.70;;;;;;5001876;28;88381;-69
2022/01/09 07:44:04;;;;;;;1.37;0.70;;;19.10;44.70;;;;;;5002273;28;91411;-69
2022/01/09 07:46:34;;;;;;;1.13;0.63;;;19.10;44.70;;;;;;5001993;28;88494;-69
2022/01/09 07:49:02;;;;;;;1.20;0.90;;;19.10;45.30;;;;;;5001772;28;88468;-68
2022/01/09 07:51:30;;;;;;;1.23;0.70;;;19.10;44.70;;;;;;5000611;28;89683;-69
2022/01/09 07:54:18;;;;;;;1.20;0.73;;;19.10;44.70;;;;;;4999610;28;88673;-68
2022/01/09 07:56:46;;;;;;;1.50;0.87;;;19.10;44.70;;;;;;5001750;28;88391;-69
2022/01/09 07:59:14;;;;;;;2.60;0.83;;;19.00;44.60;;;;;;5001349;28;88415;-69
2022/01/09 08:01:49;;;;;;;1.20;0.73;;;19.00;44.70;;;;;;5001187;28;91021;-69
2022/01/09 08:04:17;;;;;;;0.90;0.50;;;19.00;44.80;;;;;;5000952;28;88943;-69
2022/01/09 08:06:45;;;;;;;0.53;0.53;;;19.00;44.70;;;;;;5001411;28;88139;-69
2022/01/09 08:09:13;;;;;;;1.03;0.50;;;19.00;44.70;;;;;;4995553;28;88714;-68
2022/01/09 08:11:41;;;;;;;0.50;0.50;;;19.00;44.70;;;;;;5000410;28;90713;-69
2022/01/09 08:14:13;;;;;;;3.50;0.80;;;19.00;44.70;;;;;;4996612;28;92247;-69
2022/01/09 08:16:43;;;;;;;3.60;1.00;;;19.00;44.70;;;;;;5003545;28;88603;-69
2022/01/09 08:19:12;;;;;;;2.63;0.87;;;19.00;44.60;;;;;;4997858;28;88473;-69
2022/01/09 08:21:40;;;;;;;1.30;0.67;;;19.00;44.60;;;;;;4999706;28;89923;-69
2022/01/09 08:24:10;;;;;;;2.97;0.70;;;19.00;44.60;;;;;;4997339;28;89003;-69
2022/01/09 08:26:38;;;;;;;1.73;0.73;;;19.00;44.60;;;;;;5001139;28;88612;-70
2022/01/09 08:29:06;;;;;;;0.90;0.60;;;19.10;44.70;;;;;;4995726;28;88477;-69
2022/01/09 08:31:34;;;;;;;1.60;1.00;;;19.00;44.60;;;;;;4990986;28;90045;-69
2022/01/09 08:34:02;;;;;;;0.60;0.50;;;19.00;44.60;;;;;;4999468;28;89022;-69
2022/01/09 08:36:34;;;;;;;2.17;0.70;;;19.00;44.70;;;;;;4989859;28;88393;-69
2022/01/09 08:39:02;;;;;;;2.23;0.50;;;19.00;44.70;;;;;;4990795;28;88473;-69
2022/01/09 08:41:30;;;;;;;2.40;0.73;;;19.00;44.70;;;;;;4998964;28;89367;-69
2022/01/09 08:44:00;;;;;;;0.70;0.70;;;19.00;44.70;;;;;;5000112;28;89092;-69
2022/01/09 08:46:29;;;;;;;3.80;1.00;;;19.00;44.70;;;;;;4992069;28;88544;-69
2022/01/09 08:48:57;;;;;;;3.23;0.90;;;19.00;44.70;;;;;;4982289;28;88699;-70
2022/01/09 08:51:25;;;;;;;1.37;0.83;;;18.90;44.70;;;;;;4985008;28;91867;-69
2022/01/09 08:53:54;;;;;;;0.93;0.90;;;18.90;44.70;;;;;;4981806;28;92338;-70
2022/01/09 08:56:24;;;;;;;3.47;0.80;;;18.90;44.70;;;;;;4986644;28;88568;-70
2022/01/09 08:58:52;;;;;;;1.80;0.63;;;18.90;44.70;;;;;;4979903;28;88522;-69
2022/01/09 09:01:40;;;;;;;0.83;0.70;;;18.90;44.70;;;;;;4986354;28;92567;-69
2022/01/09 09:04:08;;;;;;;2.13;0.90;;;18.90;44.70;;;;;;4998103;28;88520;-69
2022/01/09 09:06:36;;;;;;;2.43;0.80;;;18.90;44.80;;;;;;5000290;28;88966;-69
2022/01/09 09:09:06;;;;;;;2.93;1.40;;;18.90;44.80;;;;;;5000400;28;88461;-70
2022/01/09 09:11:34;;;;;;;0.87;0.50;;;18.90;44.80;;;;;;4998713;28;89923;-69
2022/01/09 09:14:02;;;;;;;1.00;0.60;;;18.90;44.80;;;;;;4991188;28;89982;-69
2022/01/09 09:16:30;;;;;;;0.83;0.70;;;18.90;44.80;;;;;;5000784;28;88556;-70
2022/01/09 09:18:58;;;;;;;1.23;0.60;;;18.90;44.80;;;;;;5005039;28;88445;-69
2022/01/09 09:21:26;;;;;;;1.43;0.73;;;18.90;44.80;;;;;;5003033;28;90600;-69
2022/01/09 09:23:54;;;;;;;1.87;0.60;;;18.90;44.90;;;;;;5003381;28;90101;-69
2022/01/09 09:26:23;;;;;;;0.93;0.60;;;18.90;44.90;;;;;;5003301;28;88515;-69
2022/01/09 09:28:51;;;;;;;0.80;0.50;;;18.90;44.90;;;;;;5003414;28;88734;-69
2022/01/09 09:31:19;;;;;;;1.63;0.63;;;18.90;44.90;;;;;;5001610;28;89732;-69
2022/01/09 09:33:47;;;;;;;1.13;0.43;;;18.90;44.90;;;;;;5002271;28;89006;-69
2022/01/09 09:36:15;;;;;;;0.73;0.40;;;18.90;45.00;;;;;;5003424;28;88461;-70
2022/01/09 09:38:43;;;;;;;0.80;0.60;;;18.90;45.00;;;;;;5003806;28;88504;-70
2022/01/09 09:41:11;;;;;;;1.50;0.70;;;18.90;45.00;;;;;;5002345;28;92880;-70
2022/01/09 09:43:40;;;;;;;1.00;0.70;;;18.90;45.00;;;;;;4997038;28;88781;-69
2022/01/09 09:46:09;;;;;;;2.50;1.10;;;18.90;45.00;;;;;;5004287;28;88736;-69
2022/01/09 09:48:37;;;;;;;3.43;0.87;;;18.90;45.00;;;;;;5003199;28;88540;-69
2022/01/09 09:51:05;;;;;;;4.33;1.20;;;19.00;45.10;;;;;;5003543;28;89506;-69
2022/01/09 09:53:33;;;;;;;4.30;1.03;;;18.90;45.00;;;;;;5002493;28;90396;-70
2022/01/09 09:56:01;;;;;;;1.17;0.80;;;18.90;45.00;;;;;;5001744;28;89936;-70
2022/01/09 09:58:29;;;;;;;3.30;1.07;;;18.90;45.10;;;;;;4993707;28;88806;-69
2022/01/09 10:00:58;;;;;;;0.87;0.50;;;18.90;45.10;;;;;;5002464;28;89559;-69
2022/01/09 10:03:27;;;;;;;1.83;1.00;;;18.90;45.10;;;;;;5002348;28;88859;-69
2022/01/09 10:05:55;;;;;;;2.43;0.73;;;18.90;45.10;;;;;;4996627;28;88654;-69
2022/01/09 10:08:23;;;;;;;1.70;0.97;;;18.90;45.20;;;;;;4984133;28;88581;-70
2022/01/09 10:10:51;;;;;;;3.90;1.30;;;18.90;45.20;;;;;;5001177;28;89686;-69
2022/01/09 10:13:21;;;;;;;3.00;0.83;;;18.90;45.20;;;;;;5003090;28;89631;-69
2022/01/09 10:15:50;;;;;;;3.90;1.13;;;18.90;45.20;;;;;;5000083;28;88517;-69
2022/01/09 10:18:44;;;;;;;2.63;1.10;;;18.90;45.30;;;;;;4999274;28;88436;-70
2022/01/09 10:21:13;;;;;;;2.93;1.20;;;18.80;45.20;;;;;;4994082;28;89690;-69
2022/01/09 10:23:58;;;;;;;2.27;0.93;;;18.90;45.20;;;;;;4988742;28;89989;-69
2022/01/09 10:26:26;;;;;;;5.07;1.57;;;18.80;45.30;;;;;;5002361;28;89138;-69
2022/01/09 10:28:54;;;;;;;4.17;1.53;;;18.80;45.20;;;;;;5001820;28;88607;-70
2022/01/09 10:31:22;;;;;;;5.13;1.40;;;18.80;45.30;;;;;;4996203;28;89640;-68
2022/01/09 10:34:10;;;;;;;2.57;1.43;;;18.80;45.90;;;;;;5002164;28;89020;-69
2022/01/09 10:36:39;;;;;;;2.00;1.27;;;18.80;45.30;;;;;;4991876;28;90051;-69
2022/01/09 10:39:09;;;;;;;3.07;1.13;;;18.80;45.30;;;;;;5002114;28;88562;-70
2022/01/09 10:41:51;;;;;;;2.73;1.50;;;18.80;45.40;;;;;;5001082;28;89589;-69
2022/01/09 10:44:22;;;;;;;1.60;1.10;;;18.80;45.40;;;;;;5000646;28;89286;-69
2022/01/09 10:46:54;;;;;;;1.73;1.60;;;18.80;45.30;;;;;;5001589;28;88580;-69
2022/01/09 10:49:24;;;;;;;2.07;1.37;;;18.80;45.40;;;;;;5002695;28;88266;-68
2022/01/09 10:51:52;;;;;;;1.70;1.07;;;18.80;45.40;;;;;;5001203;28;89569;-69
2022/01/09 10:54:30;;;;;;;3.13;1.20;;;18.80;45.40;;;;;;5001534;28;89102;-69
2022/01/09 10:57:12;;;;;;;1.63;1.23;;;18.80;45.40;;;;;;5002134;28;88483;-69
2022/01/09 10:59:40;;;;;;;2.30;1.17;;;18.80;45.40;;;;;;4997939;28;88801;-69
2022/01/09 11:02:10;;;;;;;3.20;1.50;;;18.80;45.40;;;;;;5000210;28;89644;-68
2022/01/09 11:04:40;;;;;;;2.67;1.40;;;18.80;45.40;;;;;;5001577;28;89394;-69
2022/01/09 11:07:08;;;;;;;2.43;1.37;;;18.90;45.50;;;;;;4995019;28;88589;-68
2022/01/09 11:09:37;;;;;;;2.47;1.10;;;18.90;45.50;;;;;;5000682;28;88510;-69
2022/01/09 11:12:07;;;;;;;3.27;1.40;;;18.90;45.50;;;;;;5000046;28;89484;-69
2022/01/09 11:14:36;;;;;;;2.50;1.27;;;18.90;45.50;;;;;;5001009;28;89186;-69
2022/01/09 11:17:05;;;;;;;2.33;1.33;;;18.90;45.50;;;;;;5001451;28;88276;-69
2022/01/09 11:19:34;;;;;;;4.00;1.30;;;18.90;45.50;;;;;;4993277;28;88716;-69
2022/01/09 11:22:05;;;;;;;2.00;1.10;;;18.90;46.10;;;;;;4993102;28;90678;-70
2022/01/09 11:24:49;;;;;;;2.57;1.10;;;18.80;45.50;;;;;;4996664;28;89013;-69
2022/01/09 11:27:22;;;;;;;3.27;1.47;;;18.80;45.50;;;;;;4986117;28;88588;-69
2022/01/09 11:29:58;;;;;;;3.40;1.13;;;18.80;45.50;;;;;;4997370;28;88750;-70
2022/01/09 11:32:31;;;;;;;4.13;1.40;;;18.80;45.50;;;;;;4992490;28;90531;-69
2022/01/09 11:35:03;;;;;;;2.13;1.30;;;18.80;45.50;;;;;;5002300;28;88955;-68
2022/01/09 11:37:42;;;;;;;5.03;1.27;;;18.80;45.60;;;;;;4996301;28;88645;-68
2022/01/09 11:40:22;;;;;;;2.40;1.47;;;18.80;45.70;;;;;;4997526;28;89692;-68
2022/01/09 11:43:03;;;;;;;1.30;1.17;;;18.80;45.70;;;;;;4992495;28;92037;-69
2022/01/09 11:45:51;;;;;;;1.90;1.30;;;18.90;45.80;;;;;;4995902;28;89004;-69
2022/01/09 11:48:20;;;;;;;1.83;1.40;;;19.10;45.90;;;;;;4993139;28;88524;-69
2022/01/09 11:51:11;;;;;;;2.03;1.50;;;19.30;45.90;;;;;;4995042;28;88406;-68
2022/01/09 11:54:10;;;;;;;6.07;1.37;;;19.50;45.90;;;;;;4995670;28;90731;-68
2022/01/09 11:56:48;;;;;;;4.00;1.70;;;19.80;45.90;;;;;;4996897;28;88843;-68
2022/01/09 11:59:48;;;;;;;7.73;1.80;;;20.10;45.80;;;;;;4996986;28;88453;-67
2022/01/09 12:02:34;;;;;;;3.43;1.40;;;20.50;45.80;;;;;;4999042;28;90201;-66
2022/01/09 12:05:03;;;;;;;5.03;1.47;;;20.70;45.60;;;;;;4993198;28;90627;-66
2022/01/09 12:08:05;;;;;;;1.77;1.60;;;20.90;46.10;;;;;;4997243;28;90139;-66
2022/01/09 12:10:52;;;;;;;7.60;1.77;;;21.10;45.50;;;;;;4990038;28;89155;-65
2022/01/09 12:13:50;;;;;;;3.60;1.80;;;21.20;45.30;;;;;;4992043;28;88692;-67
2022/01/09 12:16:49;;;;;;;3.37;2.30;;;21.30;45.50;;;;;;4997386;28;89591;-66
2022/01/09 12:19:54;;;;;;;2.43;1.60;;;21.40;45.50;;;;;;5000035;28;90233;-66
2022/01/09 12:23:05;;;;;;;2.17;1.70;;;21.50;45.60;;;;;;4996214;28;89616;-66
2022/01/09 12:26:00;;;;;;;2.73;2.30;;;21.60;45.90;;;;;;4992362;28;88638;-66
2022/01/09 12:28:48;;;;;;;3.50;1.80;;;21.70;45.60;;;;;;4991216;28;89707;-66
2022/01/09 12:31:28;;;;;;;3.13;1.77;;;21.70;45.70;;;;;;5000982;28;89033;-66
2022/01/09 12:33:59;;;;;;;3.47;2.37;;;21.70;45.80;;;;;;4991156;28;88510;-65
2022/01/09 12:36:31;;;;;;;2.23;1.83;;;21.70;45.90;;;;;;4992262;28;88563;-66
2022/01/09 12:39:02;;;;;;;6.43;2.20;;;21.70;46.00;;;;;;4990614;28;88612;-66
2022/01/09 12:41:33;;;;;;;4.67;2.23;;;21.80;46.00;;;;;;4989131;28;88712;-66
2022/01/09 12:44:06;;;;;;;4.43;2.23;;;21.90;46.10;;;;;;4996672;28;88558;-66
2022/01/09 12:46:35;;;;;;;3.73;1.97;;;22.00;46.00;;;;;;4999180;28;88585;-66
2022/01/09 12:49:05;;;;;;;3.77;1.70;;;22.20;46.00;;;;;;4995999;28;90698;-67
2022/01/09 12:51:34;;;;;;;3.27;2.20;;;22.30;46.00;;;;;;4996643;28;89478;-65
2022/01/09 12:54:03;;;;;;;5.20;2.47;;;22.50;45.90;;;;;;4990524;28;88502;-66
2022/01/09 12:56:32;;;;;;;4.80;2.30;;;22.60;45.80;;;;;;4995406;28;88567;-66
2022/01/09 12:59:00;;;;;;;7.63;2.40;;;22.70;45.70;;;;;;4995960;28;89624;-66
2022/01/09 13:01:36;;;;;;;5.40;1.83;;;22.80;45.60;;;;;;4986155;28;91399;-67
2022/01/09 13:04:09;;;;;;;2.90;1.80;;;22.80;45.60;;;;;;4996400;28;88718;-67